Time;durP1;ratioP1;P1;durP2;ratioP2;P2;SDS_P1;SDS_P2;PMS_P1;PMS_P2;Temp;Humidity;BMP_temperature;BMP_pressure;BME280_temperature;BME280_humidity;BME280_pressure;Samples;Min_cycle;Max_cycle;Signal;HPM_P1;HPM_P2
2022/01/18 00:01:33;;;;;;;;;19.20;17.00;;;;;5.29;50.63;99667.81;6089921;28;97334;-72
2022/01/18 00:04:37;;;;;;;;;20.20;18.00;;;;;5.24;50.27;99681.69;6089608;28;97006;-72
2022/01/18 00:07:40;;;;;;;;;20.80;18.00;;;;;5.33;50.48;99687.84;6086072;28;98125;-69
2022/01/18 00:10:44;;;;;;;;;16.00;16.00;;;;;5.28;50.50;99684.03;6083556;28;97477;-71
2022/01/18 00:13:55;;;;;;;;;17.60;16.00;;;;;5.37;50.68;99683.03;6077411;28;97468;-71
2022/01/18 00:17:16;;;;;;;;;16.60;14.60;;;;;5.38;50.45;99700.72;6105256;28;98166;-68
2022/01/18 00:20:25;;;;;;;;;16.40;13.40;;;;;5.30;50.48;99698.88;6075387;28;96509;-71
2022/01/18 00:23:28;;;;;;;;;18.00;15.00;;;;;5.34;50.43;99702.06;6087138;28;96670;-71
2022/01/18 00:26:33;;;;;;;;;17.00;14.40;;;;;5.24;50.80;99700.41;6088892;28;98734;-71
2022/01/18 00:29:42;;;;;;;;;17.25;15.00;;;;;5.34;50.66;99702.91;6071734;28;98425;-67
2022/01/18 00:32:56;;;;;;;;;13.00;13.00;;;;;5.34;50.38;99702.06;6072150;28;96518;-68
2022/01/18 00:36:03;;;;;;;;;18.60;15.40;;;;;5.38;50.30;99716.75;6067225;28;96507;-71
2022/01/18 00:39:08;;;;;;;;;15.00;13.00;;;;;5.43;50.54;99714.41;6059602;28;98743;-68
2022/01/18 00:42:11;;;;;;;;;13.00;11.00;;;;;5.47;50.27;99734.50;6075185;28;96859;-68
2022/01/18 00:45:14;;;;;;;;;15.33;14.00;;;;;5.45;50.49;99734.66;6068757;28;98623;-70
2022/01/18 00:48:19;;;;;;;;;15.50;14.00;;;;;5.46;50.40;99741.69;6055830;28;97555;-70
2022/01/18 00:51:23;;;;;;;;;15.25;13.00;;;;;5.53;50.30;99750.69;6067611;28;97006;-70
2022/01/18 00:54:33;;;;;;;;;15.40;13.60;;;;;5.53;50.14;99748.00;6068410;28;96798;-70
2022/01/18 00:57:37;;;;;;;;;14.00;13.00;;;;;5.54;49.99;99752.34;6059217;28;96486;-71
2022/01/18 01:00:40;;;;;;;;;15.00;14.00;;;;;5.52;50.33;99754.34;6041920;28;98501;-68
2022/01/18 01:03:45;;;;;;;;;12.00;11.00;;;;;5.64;49.96;99749.50;6045967;28;96811;-68
2022/01/18 01:06:48;;;;;;;;;13.00;11.75;;;;;5.71;49.93;99750.50;6067004;28;97389;-71
2022/01/18 01:09:53;;;;;;;;;15.00;13.00;;;;;5.63;49.99;99766.56;6050498;28;98391;-70
2022/01/18 01:12:56;;;;;;;;;13.60;11.00;;;;;5.64;50.18;99776.25;6066861;28;97396;-68
2022/01/18 01:16:11;;;;;;;;;14.00;12.00;;;;;5.58;49.86;99766.22;6066186;28;97566;-71
2022/01/18 01:36:38;;;;;;;;;13.00;11.00;;;;;5.43;49.99;99782.09;6074759;28;97137;-68
2022/01/18 01:43:14;;;;;;;;;12.00;10.00;;;;;5.51;50.06;99773.25;6108546;28;98125;-71
2022/01/18 01:46:19;;;;;;;;;13.80;11.00;;;;;5.51;49.91;99767.91;6093142;28;97558;-71
2022/01/18 01:49:24;;;;;;;;;11.00;10.00;;;;;5.44;49.96;99748.19;6087791;28;96601;-68
2022/01/18 01:52:28;;;;;;;;;15.20;13.00;;;;;5.45;50.03;99766.75;6085421;28;98537;-70
2022/01/18 01:55:32;;;;;;;;;11.40;9.00;;;;;5.45;50.23;99777.44;6069818;28;97520;-68
2022/01/18 01:58:35;;;;;;;;;11.00;10.00;;;;;5.34;50.55;99788.47;6092113;28;96690;-70
2022/01/18 02:01:45;;;;;;;;;13.00;10.40;;;;;5.37;50.46;99781.97;6093240;28;97042;-69
2022/01/18 02:04:49;;;;;;;;;11.00;10.25;;;;;5.43;50.35;99783.94;6093590;28;99558;-68
2022/01/18 02:07:53;;;;;;;;;12.00;11.00;;;;;5.34;50.38;99775.09;6083355;28;96928;-68
2022/01/18 02:10:57;;;;;;;;;10.80;9.80;;;;;5.41;50.34;99783.28;6092462;28;96484;-71
2022/01/18 02:14:01;;;;;;;;;13.75;10.00;;;;;5.37;50.16;99773.94;6093113;28;96452;-70
2022/01/18 02:23:47;;;;;;;;;14.00;11.60;;;;;5.50;49.79;99785.78;6062900;28;96582;-71
2022/01/18 02:26:50;;;;;;;;;13.80;11.80;;;;;5.53;49.62;99776.59;6084614;28;96549;-69
2022/01/18 02:29:53;;;;;;;;;12.00;10.00;;;;;5.55;49.65;99779.94;6083715;28;96529;-72
2022/01/18 02:32:57;;;;;;;;;13.40;11.00;;;;;5.48;49.82;99785.13;6076408;28;97494;-72
2022/01/18 02:36:09;;;;;;;;;12.20;10.20;;;;;5.52;49.71;99777.63;6082976;28;97475;-72
2022/01/18 02:39:14;;;;;;;;;12.00;10.60;;;;;5.58;49.54;99784.94;6090400;28;96691;-68
2022/01/18 02:42:24;;;;;;;;;11.40;10.40;;;;;5.50;49.59;99782.28;6089148;28;96741;-70
2022/01/18 02:45:28;;;;;;;;;12.50;10.50;;;;;5.64;49.52;99787.78;6093059;28;96946;-68
2022/01/18 02:48:31;;;;;;;;;11.20;9.80;;;;;5.58;49.67;99793.81;6082089;28;97980;-69
2022/01/18 02:51:36;;;;;;;;;10.60;10.00;;;;;5.60;49.66;99797.16;6089371;28;97422;-71
2022/01/18 02:54:39;;;;;;;;;10.00;9.00;;;;;5.66;49.18;99807.22;6081629;28;96886;-72
2022/01/18 02:57:54;;;;;;;;;11.60;10.60;;;;;5.65;49.19;99810.88;6070613;28;96898;-71
2022/01/18 03:04:20;;;;;;;;;12.80;11.80;;;;;5.72;49.00;99794.97;6087608;28;97122;-72
2022/01/18 03:07:24;;;;;;;;;12.00;10.00;;;;;5.74;48.89;99802.84;6082227;28;97406;-69
2022/01/18 03:10:28;;;;;;;;;12.00;11.00;;;;;5.86;48.75;99798.81;6083566;28;97477;-71
2022/01/18 03:13:31;;;;;;;;;11.67;10.00;;;;;5.83;48.83;99791.94;6086986;28;97444;-71
2022/01/18 03:16:34;;;;;;;;;11.40;9.40;;;;;5.82;48.70;99795.63;6091934;28;96461;-72
2022/01/18 03:19:38;;;;;;;;;10.25;9.25;;;;;5.78;48.55;99807.69;6091152;28;97564;-69
2022/01/18 03:22:45;;;;;;;;;12.00;10.00;;;;;5.64;49.23;99814.56;6089654;28;96756;-72
2022/01/18 03:25:55;;;;;;;;;11.00;11.00;;;;;5.46;49.57;99823.75;6080006;28;97055;-71
2022/01/18 03:28:59;;;;;;;;;10.00;8.00;;;;;5.58;49.33;99825.06;6073869;28;96381;-71
2022/01/18 03:32:02;;;;;;;;;12.00;11.00;;;;;5.51;49.51;99811.53;6090076;28;98524;-69
2022/01/18 03:35:07;;;;;;;;;12.33;11.00;;;;;5.60;49.69;99828.44;6093077;28;97105;-68
2022/01/18 03:38:13;;;;;;;;;11.00;9.20;;;;;5.57;49.48;99820.75;6090758;28;97637;-68
2022/01/18 04:04:26;;;;;;;;;10.80;9.20;;;;;5.53;49.75;99838.09;6087951;28;96611;-71
2022/01/18 04:07:29;;;;;;;;;10.00;9.00;;;;;5.38;49.53;99813.84;6090598;28;96445;-69
2022/01/18 04:10:33;;;;;;;;;12.00;10.20;;;;;5.55;49.66;99838.78;6090164;28;98240;-69
2022/01/18 04:13:36;;;;;;;;;10.00;9.00;;;;;5.52;49.59;99850.63;6090482;28;96489;-69
2022/01/18 04:16:55;;;;;;;;;12.00;11.00;;;;;5.41;49.86;99842.97;6089678;28;97778;-69
2022/01/18 04:27:01;;;;;;;;;10.75;10.00;;;;;5.40;49.95;99846.63;6089513;28;97935;-68
2022/01/18 04:30:05;;;;;;;;;10.00;9.00;;;;;5.42;49.97;99841.97;6089779;28;98414;-70
2022/01/18 04:33:08;;;;;;;;;13.00;11.00;;;;;5.44;50.11;99863.19;6102427;28;96684;-71
2022/01/18 04:36:13;;;;;;;;;10.20;9.20;;;;;5.54;49.80;99870.03;6073480;28;98099;-69
2022/01/18 04:39:17;;;;;;;;;10.40;9.60;;;;;5.56;49.68;99877.91;6090404;28;96527;-71
2022/01/18 04:42:36;;;;;;;;;14.00;10.00;;;;;5.46;49.91;99878.06;6090756;28;97461;-69
2022/01/18 04:49:04;;;;;;;;;12.00;12.00;;;;;5.62;49.60;99885.25;6067196;28;96700;-71
2022/01/18 04:52:11;;;;;;;;;9.00;8.00;;;;;5.60;49.61;99893.47;6088627;28;97418;-71
2022/01/18 04:55:15;;;;;;;;;8.60;8.00;;;;;5.46;49.57;99874.56;6090716;28;96576;-69
2022/01/18 04:58:18;;;;;;;;;11.50;10.50;;;;;5.65;49.60;99895.66;6090502;28;96412;-71
2022/01/18 05:01:22;;;;;;;;;11.00;10.00;;;;;5.61;49.77;99886.28;6086044;28;97353;-71
2022/01/18 05:04:25;;;;;;;;;12.60;10.00;;;;;5.56;49.62;99886.78;6075298;28;96964;-69
2022/01/18 05:07:30;;;;;;;;;10.50;10.00;;;;;5.62;49.61;99886.09;6088271;28;98606;-71
2022/01/18 05:10:34;;;;;;;;;10.00;9.50;;;;;5.45;49.81;99896.94;6090330;28;97531;-69
2022/01/18 05:14:02;;;;;;;;;13.60;11.60;;;;;5.55;49.93;99903.00;6086895;28;99050;-71
2022/01/18 05:17:15;;;;;;;;;11.00;10.50;;;;;5.56;49.87;99905.50;6088018;28;97796;-69
2022/01/18 05:20:40;;;;;;;;;9.60;9.00;;;;;5.52;50.10;99897.97;6089659;28;98501;-72
2022/01/18 05:23:45;;;;;;;;;10.00;9.00;;;;;5.58;49.68;99902.66;6089267;28;97807;-70
2022/01/18 05:26:49;;;;;;;;;8.20;7.20;;;;;5.41;49.90;99888.44;6089825;28;97892;-69
2022/01/18 05:29:52;;;;;;;;;10.00;9.00;;;;;5.57;49.79;99896.44;6088472;28;98498;-71
2022/01/18 05:32:56;;;;;;;;;10.00;9.00;;;;;5.61;49.67;99911.19;6091063;28;97319;-69
2022/01/18 05:36:00;;;;;;;;;11.60;10.40;;;;;5.45;50.31;99923.69;6086089;28;96269;-72
2022/01/18 05:39:05;;;;;;;;;12.00;10.00;;;;;5.46;50.33;99920.03;6089227;28;97642;-68
2022/01/18 05:42:10;;;;;;;;;11.00;10.00;;;;;5.65;49.80;99927.75;6080565;28;96471;-71
2022/01/18 05:45:14;;;;;;;;;12.00;11.00;;;;;5.71;49.72;99937.81;6064827;28;98792;-68
2022/01/18 05:48:17;;;;;;;;;11.50;10.00;;;;;5.71;49.82;99940.47;6088239;28;99441;-70
2022/01/18 05:51:20;;;;;;;;;11.00;9.80;;;;;5.67;49.88;99936.44;6093220;28;97672;-68
2022/01/18 05:54:25;;;;;;;;;11.40;10.00;;;;;5.74;49.61;99941.97;6086143;28;97547;-68
2022/01/18 05:57:28;;;;;;;;;13.00;11.00;;;;;5.74;49.63;99941.97;6103373;28;97428;-68
2022/01/18 06:00:32;;;;;;;;;14.00;12.00;;;;;5.60;49.84;99933.59;6088179;28;97801;-68
2022/01/18 06:03:49;;;;;;;;;11.60;9.60;;;;;5.76;49.64;99939.97;6089365;28;97265;-71
2022/01/18 06:06:53;;;;;;;;;12.00;11.40;;;;;5.84;49.80;99948.00;6087942;28;98155;-71
2022/01/18 06:09:58;;;;;;;;;13.00;11.80;;;;;5.83;49.29;99944.50;6088170;28;96932;-70
2022/01/18 06:13:03;;;;;;;;;12.00;10.00;;;;;5.90;49.28;99950.06;6106942;28;97023;-70
2022/01/18 06:16:07;;;;;;;;;11.40;10.00;;;;;5.79;49.52;99942.31;6103845;28;96527;-70
2022/01/18 06:19:11;;;;;;;;;11.00;11.00;;;;;5.84;49.39;99934.63;6090579;28;96619;-70
2022/01/18 06:22:14;;;;;;;;;12.20;10.40;;;;;5.70;49.59;99936.13;6092503;28;96622;-68
2022/01/18 06:25:21;;;;;;;;;10.00;9.00;;;;;5.75;49.44;99946.31;6092887;28;97589;-71
2022/01/18 06:28:24;;;;;;;;;9.00;8.00;;;;;5.75;49.59;99933.78;6092622;28;97559;-70
2022/01/18 06:31:27;;;;;;;;;10.00;8.80;;;;;5.48;49.21;99924.19;6092059;28;98032;-71
2022/01/18 06:34:31;;;;;;;;;11.60;10.00;;;;;5.65;49.55;99944.63;6091796;28;97169;-71
2022/01/18 06:37:34;;;;;;;;;9.60;9.00;;;;;5.77;49.47;99958.53;6091667;28;98402;-69
2022/01/18 06:40:40;;;;;;;;;9.80;7.20;;;;;5.71;49.42;99959.22;6090918;28;99042;-71
2022/01/18 06:43:43;;;;;;;;;9.60;8.60;;;;;5.68;49.91;99980.91;6091926;28;97059;-68
2022/01/18 06:46:47;;;;;;;;;12.00;11.00;;;;;5.81;49.74;99972.44;6092902;28;96655;-71
2022/01/18 06:49:50;;;;;;;;;10.60;8.00;;;;;5.77;49.52;99973.75;6091376;28;96566;-71
2022/01/18 06:52:53;;;;;;;;;12.60;10.80;;;;;5.79;49.57;99987.81;6075066;28;99823;-69
2022/01/18 06:55:58;;;;;;;;;9.25;8.25;;;;;5.82;49.46;99996.34;6091062;28;96759;-68
2022/01/18 06:59:01;;;;;;;;;11.25;9.25;;;;;5.92;49.30;99997.06;6091195;28;97807;-71
2022/01/18 07:02:05;;;;;;;;;6.75;6.00;;;;;5.86;49.33;99984.31;6092881;28;96675;-68
2022/01/18 07:05:09;;;;;;;;;8.60;8.00;;;;;6.11;48.88;100005.81;6092706;28;96446;-68
2022/01/18 07:08:12;;;;;;;;;8.75;8.00;;;;;6.23;48.48;100007.13;6090152;28;97151;-70
2022/01/18 07:11:17;;;;;;;;;11.00;10.00;;;;;6.27;48.48;100013.81;6094605;28;97242;-71
2022/01/18 07:14:21;;;;;;;;;9.00;8.00;;;;;6.22;48.83;100025.03;6090414;28;96556;-72
2022/01/18 07:17:25;;;;;;;;;9.00;8.80;;;;;6.22;48.54;100018.84;6078813;28;99822;-71
2022/01/18 07:20:28;;;;;;;;;10.00;8.50;;;;;6.31;48.62;100023.19;6082721;28;98564;-69
2022/01/18 07:23:31;;;;;;;;;12.40;12.00;;;;;6.25;48.17;100029.25;6096881;28;96859;-71
2022/01/18 07:26:40;;;;;;;;;10.40;9.00;;;;;6.30;48.27;100035.78;6078641;28;96914;-68
2022/01/18 07:29:44;;;;;;;;;10.80;7.40;;;;;7.07;46.42;100002.19;6088061;28;97462;-68
2022/01/18 07:32:47;;;;;;;;;10.00;9.00;;;;;7.74;45.41;100027.56;6088000;28;97866;-71
2022/01/18 07:35:51;;;;;;;;;10.80;10.20;;;;;8.30;43.65;100040.84;6088625;28;96707;-69
2022/01/18 07:38:55;;;;;;;;;10.00;9.00;;;;;9.03;41.84;100047.28;6089458;28;97126;-69
2022/01/18 07:42:00;;;;;;;;;11.00;9.80;;;;;9.75;40.67;100033.16;6088883;28;96648;-69
2022/01/18 07:45:05;;;;;;;;;8.40;8.00;;;;;11.45;37.92;100054.63;6076255;28;100326;-69
2022/01/18 07:48:08;;;;;;;;;7.40;6.40;;;;;12.69;35.23;100059.69;6088536;28;97879;-69
2022/01/18 07:51:13;;;;;;;;;8.00;7.60;;;;;13.72;33.53;100061.69;6086125;28;97070;-70
2022/01/18 07:54:16;;;;;;;;;9.00;8.00;;;;;14.82;31.26;100068.59;6090464;28;97189;-72
2022/01/18 07:57:21;;;;;;;;;8.00;8.00;;;;;15.64;29.60;100067.44;6092085;28;97117;-69
2022/01/18 08:00:25;;;;;;;;;8.00;8.00;;;;;15.35;29.98;100074.41;6091801;28;96740;-72
2022/01/18 08:03:29;;;;;;;;;7.80;7.00;;;;;14.65;30.54;100065.63;6090794;28;97581;-70
2022/01/18 08:06:33;;;;;;;;;9.60;8.00;;;;;14.21;31.16;100079.19;6090987;28;96627;-72
2022/01/18 08:09:36;;;;;;;;;7.00;7.00;;;;;14.78;31.29;100082.84;6090168;28;98403;-72
2022/01/18 08:12:41;;;;;;;;;10.00;10.00;;;;;14.45;31.29;100088.50;6091876;28;96546;-72
2022/01/18 08:15:56;;;;;;;;;8.80;7.80;;;;;13.66;32.23;100086.91;6089720;28;97220;-72
2022/01/18 08:19:03;;;;;;;;;12.00;10.20;;;;;12.77;33.53;100091.94;6091679;28;96864;-70
2022/01/18 08:22:11;;;;;;;;;8.80;8.00;;;;;13.14;33.23;100095.13;6090557;28;97224;-72
2022/01/18 08:25:16;;;;;;;;;10.00;9.00;;;;;14.40;31.32;100101.88;6105872;28;97154;-71
2022/01/18 08:28:21;;;;;;;;;10.00;8.00;;;;;15.05;29.92;100112.28;6092065;28;97583;-72
2022/01/18 08:31:24;;;;;;;;;10.75;8.00;;;;;14.24;30.69;100124.88;6087623;28;97234;-69
2022/01/18 08:34:27;;;;;;;;;10.40;9.00;;;;;13.42;32.19;100129.06;6089689;28;97489;-70
2022/01/18 08:37:31;;;;;;;;;8.00;8.00;;;;;12.42;33.45;100131.81;6089791;28;97174;-71
2022/01/18 08:40:34;;;;;;;;;11.75;10.75;;;;;12.06;34.32;100137.53;6089420;28;97983;-69
2022/01/18 08:43:39;;;;;;;;;7.50;7.25;;;;;11.49;34.95;100136.91;6089192;28;97290;-69
2022/01/18 08:46:43;;;;;;;;;12.00;10.00;;;;;11.50;35.43;100136.72;6088917;28;96649;-72
2022/01/18 08:49:47;;;;;;;;;11.40;9.40;;;;;11.58;35.42;100149.25;6088353;28;96726;-71
2022/01/18 08:52:52;;;;;;;;;8.20;7.00;;;;;10.96;35.99;100165.34;6093248;28;96740;-70
2022/01/18 08:55:55;;;;;;;;;10.00;7.80;;;;;10.54;36.82;100175.09;6088522;28;97521;-70
2022/01/18 08:59:00;;;;;;;;;11.50;9.50;;;;;10.30;37.76;100181.66;6088558;28;96614;-70
2022/01/18 09:02:04;;;;;;;;;8.20;7.20;;;;;10.01;38.32;100184.34;6087231;28;97395;-70
2022/01/18 09:05:09;;;;;;;;;8.20;7.00;;;;;9.73;38.56;100186.81;6089767;28;97546;-69
2022/01/18 09:08:13;;;;;;;;;10.50;10.00;;;;;9.34;39.32;100189.75;6088878;28;98396;-69
2022/01/18 09:11:16;;;;;;;;;11.00;10.00;;;;;8.85;40.21;100193.81;6085041;28;96999;-71
2022/01/18 09:14:21;;;;;;;;;11.50;10.50;;;;;8.79;40.78;100210.72;6091231;28;98193;-70
2022/01/18 09:17:24;;;;;;;;;10.50;8.00;;;;;8.62;41.03;100201.88;6089939;28;97531;-70
2022/01/18 09:20:28;;;;;;;;;9.00;8.00;;;;;8.37;41.36;100186.91;6090491;28;96780;-73
2022/01/18 09:23:32;;;;;;;;;11.00;9.00;;;;;8.29;42.00;100201.19;6088879;28;96608;-71
2022/01/18 09:26:36;;;;;;;;;8.00;8.00;;;;;8.14;42.41;100211.00;6103864;28;97214;-70
2022/01/18 09:29:40;;;;;;;;;8.40;8.00;;;;;7.93;43.05;100216.94;6088549;28;97407;-72
2022/01/18 09:32:45;;;;;;;;;8.00;8.00;;;;;7.83;43.30;100211.75;6101718;28;97920;-72
2022/01/18 09:35:48;;;;;;;;;9.00;9.00;;;;;7.96;43.33;100205.88;6076980;28;98443;-71
2022/01/18 09:38:51;;;;;;;;;7.00;6.75;;;;;8.01;43.39;100205.34;6089061;28;97494;-72
2022/01/18 09:41:58;;;;;;;;;9.40;9.00;;;;;8.11;43.31;100203.31;6088488;28;96616;-70
2022/01/18 09:45:07;;;;;;;;;8.80;8.00;;;;;8.15;43.36;100202.78;6088640;28;96594;-70
2022/01/18 09:48:12;;;;;;;;;10.00;8.00;;;;;8.16;43.53;100206.31;6088346;28;96630;-69
2022/01/18 09:51:16;;;;;;;;;8.00;7.00;;;;;8.21;43.41;100203.91;6074681;28;97785;-72
2022/01/18 09:54:19;;;;;;;;;12.00;8.00;;;;;8.22;43.81;100206.41;6091619;28;96674;-71
2022/01/18 09:57:23;;;;;;;;;8.80;8.00;;;;;8.24;43.71;100217.00;6107802;28;96652;-70
2022/01/18 10:00:30;;;;;;;;;8.60;8.60;;;;;8.31;43.88;100211.81;6082232;28;99595;-70
2022/01/18 10:03:37;;;;;;;;;8.00;7.00;;;;;8.25;44.01;100216.00;6094379;28;97341;-70
2022/01/18 10:06:41;;;;;;;;;9.00;8.00;;;;;8.34;44.04;100224.88;6083106;28;97330;-72
2022/01/18 10:09:45;;;;;;;;;8.00;7.00;;;;;8.41;44.06;100221.31;6089606;28;96929;-70
2022/01/18 10:12:56;;;;;;;;;10.40;8.00;;;;;8.47;43.85;100222.47;6090019;28;97621;-72
2022/01/18 10:16:07;;;;;;;;;9.40;8.00;;;;;8.26;43.74;100199.69;6091895;28;96439;-72
2022/01/18 10:19:11;;;;;;;;;8.40;7.00;;;;;8.44;43.52;100226.34;6089255;28;98268;-72
2022/01/18 10:22:16;;;;;;;;;8.20;7.60;;;;;8.39;43.93;100225.19;6104650;28;98068;-70
2022/01/18 10:25:23;;;;;;;;;11.00;8.00;;;;;8.26;44.29;100234.63;6092479;28;96898;-72
2022/01/18 10:28:32;;;;;;;;;11.00;10.00;;;;;8.18;44.59;100234.66;6095501;28;97435;-71
2022/01/18 10:31:42;;;;;;;;;10.00;9.00;;;;;8.33;44.36;100242.00;6081830;28;96800;-70
2022/01/18 10:35:08;;;;;;;;;9.60;9.00;;;;;8.31;44.38;100252.13;6090686;28;97045;-72
2022/01/18 10:38:18;;;;;;;;;10.00;8.40;;;;;8.30;44.06;100245.06;6091192;28;97403;-69
2022/01/18 10:41:28;;;;;;;;;11.40;10.40;;;;;8.22;44.19;100252.09;6079349;28;96596;-69
2022/01/18 10:44:34;;;;;;;;;11.40;9.60;;;;;8.12;44.30;100246.09;6090854;28;97697;-70
2022/01/18 10:47:48;;;;;;;;;11.33;10.00;;;;;8.30;44.10;100251.28;6074000;28;97284;-71
2022/01/18 10:50:51;;;;;;;;;13.00;10.20;;;;;8.20;44.00;100254.13;6092272;28;97417;-69
2022/01/18 10:53:59;;;;;;;;;9.00;9.00;;;;;8.24;43.84;100250.09;6071136;28;96799;-71
2022/01/18 10:57:04;;;;;;;;;10.00;8.75;;;;;8.19;43.86;100256.97;6094360;28;96474;-69
2022/01/18 11:00:10;;;;;;;;;9.33;8.00;;;;;8.36;43.44;100255.94;6092401;28;98795;-69
2022/01/18 11:03:15;;;;;;;;;11.40;9.00;;;;;8.36;43.46;100255.09;6092494;28;96438;-70
2022/01/18 11:06:18;;;;;;;;;13.40;10.40;;;;;8.53;43.02;100254.88;6107071;28;97932;-69
2022/01/18 11:09:23;;;;;;;;;12.00;10.60;;;;;8.50;42.94;100252.50;6091480;28;97235;-70
2022/01/18 11:12:29;;;;;;;;;11.00;11.00;;;;;8.42;43.12;100262.47;6090429;28;97163;-69
2022/01/18 11:15:35;;;;;;;;;11.00;10.00;;;;;8.55;43.03;100270.81;6092619;28;97495;-68
2022/01/18 11:18:45;;;;;;;;;15.50;13.00;;;;;8.59;42.94;100272.16;6091785;28;96592;-70
2022/01/18 11:21:51;;;;;;;;;11.75;11.00;;;;;8.60;42.42;100276.53;6089691;28;98510;-69
2022/01/18 11:24:58;;;;;;;;;14.00;12.00;;;;;8.63;42.75;100277.00;6090650;28;97017;-68
2022/01/18 11:28:02;;;;;;;;;12.80;10.80;;;;;8.86;42.60;100273.50;6090826;28;97282;-68
2022/01/18 11:31:10;;;;;;;;;15.00;12.00;;;;;8.83;42.27;100268.50;6091993;28;97496;-67
2022/01/18 11:34:28;;;;;;;;;11.25;10.50;;;;;8.81;41.89;100271.34;6091406;28;97049;-68
2022/01/18 11:37:48;;;;;;;;;11.60;11.00;;;;;8.79;42.23;100270.72;6090583;28;97562;-69
2022/01/18 11:40:52;;;;;;;;;12.00;11.00;;;;;8.66;42.41;100279.31;6092065;28;96940;-68
2022/01/18 11:43:59;;;;;;;;;14.00;13.00;;;;;8.75;42.31;100274.72;6090361;28;96738;-69
2022/01/18 11:47:05;;;;;;;;;12.00;11.00;;;;;8.81;42.26;100287.47;6091768;28;97585;-67
2022/01/18 11:50:17;;;;;;;;;13.40;12.00;;;;;8.70;42.24;100283.34;6091448;28;96558;-67
2022/01/18 11:53:53;;;;;;;;;13.00;12.00;;;;;8.67;42.39;100282.84;6092141;28;97461;-67
2022/01/18 11:56:57;;;;;;;;;12.60;12.00;;;;;8.64;42.36;100280.53;6097634;28;96964;-68
2022/01/18 12:00:23;;;;;;;;;13.50;13.00;;;;;8.66;42.49;100278.47;6099834;28;97592;-70
2022/01/18 12:03:29;;;;;;;;;12.80;11.20;;;;;8.71;42.02;100268.03;6083773;28;97493;-69
2022/01/18 12:06:47;;;;;;;;;13.20;10.20;;;;;8.95;41.86;100278.66;6091371;28;96462;-68
2022/01/18 12:09:50;;;;;;;;;11.60;11.00;;;;;8.99;41.61;100281.84;6083085;28;96987;-68
2022/01/18 12:12:55;;;;;;;;;8.00;8.00;;;;;8.95;41.55;100283.19;6086195;28;97474;-69
2022/01/18 12:16:01;;;;;;;;;13.40;11.60;;;;;8.95;41.51;100283.19;6073140;28;98085;-68
2022/01/18 12:19:07;;;;;;;;;11.00;9.00;;;;;8.86;41.06;100286.94;6092748;28;97240;-70
2022/01/18 12:22:12;;;;;;;;;11.00;10.00;;;;;8.82;41.13;100291.84;6094482;28;97628;-68
2022/01/18 12:25:28;;;;;;;;;11.80;11.00;;;;;8.53;41.42;100297.03;6086608;28;96990;-67
2022/01/18 12:29:20;;;;;;;;;11.00;10.00;;;;;8.42;41.39;100311.69;6082356;28;96419;-71
2022/01/18 12:32:49;;;;;;;;;13.00;12.00;;;;;8.42;41.68;100297.41;6090210;28;97172;-67
2022/01/18 12:36:30;;;;;;;;;12.40;11.40;;;;;8.38;41.68;100314.88;6088576;28;99484;-69
2022/01/18 12:40:05;;;;;;;;;10.00;10.00;;;;;8.34;42.08;100311.72;6072829;28;98508;-68
2022/01/18 12:46:32;;;;;;;;;13.00;9.80;;;;;8.25;41.91;100323.47;6089682;28;97477;-69
2022/01/18 12:49:37;;;;;;;;;12.00;10.00;;;;;8.35;42.03;100328.69;6105057;28;97464;-67
2022/01/18 12:52:51;;;;;;;;;10.50;10.50;;;;;8.22;42.07;100327.31;6092451;28;97277;-68
2022/01/18 12:55:57;;;;;;;;;11.75;10.75;;;;;8.27;42.38;100324.13;6101306;28;97391;-69
2022/01/18 12:59:02;;;;;;;;;11.00;11.00;;;;;8.12;42.48;100336.56;6064801;28;97856;-68
2022/01/18 13:02:06;;;;;;;;;12.50;11.00;;;;;8.27;42.25;100332.19;6081519;28;97458;-69
2022/01/18 13:05:09;;;;;;;;;12.00;11.20;;;;;8.32;41.95;100332.53;6066557;28;97230;-70
2022/01/18 13:08:17;;;;;;;;;10.00;10.00;;;;;8.41;42.05;100341.41;6085254;28;97422;-69
2022/01/18 13:11:22;;;;;;;;;13.50;11.25;;;;;8.51;41.53;100345.59;6079470;28;96672;-68
2022/01/18 13:14:29;;;;;;;;;12.00;12.00;;;;;8.55;41.58;100338.84;6090635;28;97456;-68
2022/01/18 13:24:49;;;;;;;;;15.00;12.00;;;;;8.59;41.49;100334.81;6088988;28;98058;-69
2022/01/18 13:28:01;;;;;;;;;14.00;13.00;;;;;8.58;41.63;100340.34;6086145;28;97451;-67
2022/01/18 13:31:14;;;;;;;;;15.40;13.00;;;;;8.42;42.12;100329.66;6091087;28;96826;-68
2022/01/18 13:34:18;;;;;;;;;12.00;11.00;;;;;8.38;42.48;100339.06;6092155;28;97943;-67
2022/01/18 13:37:26;;;;;;;;;13.20;12.00;;;;;8.50;42.04;100335.03;6093465;28;97002;-69
2022/01/18 13:40:35;;;;;;;;;14.00;12.00;;;;;8.16;41.96;100293.06;6080053;28;98084;-69
2022/01/18 13:43:38;;;;;;;;;12.00;11.60;;;;;8.44;41.95;100344.63;6092388;28;96652;-67
2022/01/18 13:46:42;;;;;;;;;13.00;12.00;;;;;8.50;42.06;100345.78;6091645;28;96650;-68
2022/01/18 13:49:46;;;;;;;;;10.60;9.00;;;;;8.58;41.50;100345.75;6092952;28;97464;-67
2022/01/18 13:52:57;;;;;;;;;13.60;13.00;;;;;8.50;41.56;100346.59;6108712;28;96666;-69
2022/01/18 13:56:04;;;;;;;;;14.40;13.00;;;;;8.46;41.22;100356.00;6092907;28;96983;-69
2022/01/18 13:59:08;;;;;;;;;17.20;14.00;;;;;8.38;41.44;100357.88;6092186;28;97106;-68
2022/01/18 14:02:16;;;;;;;;;14.00;12.00;;;;;8.23;42.08;100371.16;6106107;28;97821;-68
2022/01/18 14:05:21;;;;;;;;;14.00;13.00;;;;;8.16;42.42;100370.16;6090633;28;97755;-67
2022/01/18 14:08:32;;;;;;;;;14.00;13.00;;;;;8.11;42.71;100378.72;6089544;28;96867;-70
2022/01/18 14:11:39;;;;;;;;;15.00;14.00;;;;;7.95;43.03;100365.31;6091579;28;96738;-70
2022/01/18 14:14:43;;;;;;;;;17.00;16.00;;;;;7.78;43.40;100385.94;6106914;28;96603;-67
2022/01/18 14:18:01;;;;;;;;;18.00;16.00;;;;;7.61;44.14;100396.84;6090411;28;97188;-67
2022/01/18 14:21:23;;;;;;;;;17.00;14.20;;;;;7.56;44.48;100392.00;6106588;28;97229;-69
2022/01/18 14:24:35;;;;;;;;;17.00;16.00;;;;;7.43;44.76;100393.47;6093603;28;98301;-70
2022/01/18 14:27:43;;;;;;;;;17.25;15.25;;;;;7.26;44.91;100384.53;6090745;28;98625;-70
2022/01/18 14:30:47;;;;;;;;;17.00;15.60;;;;;7.37;44.78;100392.28;6091438;28;97314;-68
2022/01/18 14:33:50;;;;;;;;;17.20;15.80;;;;;7.39;44.69;100395.63;6069458;28;96845;-69
2022/01/18 14:36:55;;;;;;;;;16.60;14.60;;;;;7.24;44.84;100370.44;6090592;28;98373;-68
2022/01/18 14:40:00;;;;;;;;;16.60;15.60;;;;;7.53;44.80;100411.09;6105966;28;96751;-69
2022/01/18 14:43:12;;;;;;;;;19.00;16.00;;;;;7.56;44.71;100410.78;6091526;28;97436;-69
2022/01/18 14:46:25;;;;;;;;;16.40;14.40;;;;;7.48;44.52;100420.66;6090818;28;97621;-69
2022/01/18 14:49:29;;;;;;;;;18.00;15.40;;;;;7.48;44.64;100426.03;6083270;28;97292;-67
2022/01/18 14:52:32;;;;;;;;;18.80;16.00;;;;;7.34;44.61;100419.44;6104283;28;96930;-67
2022/01/18 14:55:36;;;;;;;;;18.20;16.00;;;;;7.37;44.84;100421.81;6069533;28;99707;-67
2022/01/18 14:58:41;;;;;;;;;19.00;16.00;;;;;7.49;44.71;100428.53;6091989;28;97660;-70
2022/01/18 15:01:48;;;;;;;;;17.00;16.00;;;;;7.51;44.41;100436.41;6089625;28;96647;-68
2022/01/18 15:04:52;;;;;;;;;15.40;14.60;;;;;7.50;44.48;100440.09;6088078;28;99679;-69
2022/01/18 15:07:56;;;;;;;;;17.80;15.20;;;;;7.47;44.36;100449.34;6089709;28;97603;-68
2022/01/18 15:10:59;;;;;;;;;19.00;17.00;;;;;7.45;44.36;100451.31;6088742;28;97529;-67
2022/01/18 15:14:04;;;;;;;;;17.25;16.25;;;;;7.42;44.49;100446.31;6095077;28;98240;-68
2022/01/18 15:17:08;;;;;;;;;19.00;17.60;;;;;7.28;44.45;100420.09;6093289;28;99123;-69
2022/01/18 15:20:12;;;;;;;;;16.00;14.20;;;;;7.32;44.51;100459.84;6089075;28;98493;-67
2022/01/18 15:23:16;;;;;;;;;20.40;19.00;;;;;7.28;44.69;100454.97;6091456;28;97498;-67
2022/01/18 15:26:29;;;;;;;;;22.20;19.00;;;;;7.27;44.67;100459.50;6091360;28;96718;-70
2022/01/18 15:29:36;;;;;;;;;20.50;17.50;;;;;7.14;44.85;100434.94;6089255;28;96717;-67
2022/01/18 15:32:41;;;;;;;;;21.60;20.00;;;;;7.32;44.65;100465.22;6090674;28;96821;-67
2022/01/18 15:35:44;;;;;;;;;22.00;21.00;;;;;7.28;44.80;100463.84;6105372;28;98440;-69
2022/01/18 15:38:47;;;;;;;;;21.00;20.00;;;;;7.22;44.67;100472.56;6091736;28;97485;-69
2022/01/18 15:41:51;;;;;;;;;19.80;15.80;;;;;7.25;44.93;100466.84;6090779;28;97207;-68